sensor_id;sensor_type;location;lat;lon;timestamp;temperature;humidity
44894;DHT22;30625;52.206;21.030;2023-02-10T04:19:32;-0.20;93.80
44894;DHT22;30625;52.206;21.030;2023-02-10T04:24:29;-0.20;94.00
44894;DHT22;30625;52.206;21.030;2023-02-10T04:26:59;-0.20;94.10
44894;DHT22;30625;52.206;21.030;2023-02-10T04:29:25;1.40;94.80
44894;DHT22;30625;52.206;21.030;2023-02-10T04:31:52;-0.30;94.20
44894;DHT22;30625;52.206;21.030;2023-02-10T04:42:55;-0.30;94.30
44894;DHT22;30625;52.206;21.030;2023-02-10T04:45:26;-0.30;94.50
44894;DHT22;30625;52.206;21.030;2023-02-10T04:47:52;-0.30;94.80
44894;DHT22;30625;52.206;21.030;2023-02-10T04:50:17;-0.40;94.40
44894;DHT22;30625;52.206;21.030;2023-02-10T05:24:16;0.00;93.90
44894;DHT22;30625;52.206;21.030;2023-02-10T06:40:28;0.30;95.40
44894;DHT22;30625;52.206;21.030;2023-02-10T06:42:53;0.20;95.40
44894;DHT22;30625;52.206;21.030;2023-02-10T06:45:19;0.30;95.30
44894;DHT22;30625;52.206;21.030;2023-02-10T06:47:45;0.30;95.60
44894;DHT22;30625;52.206;21.030;2023-02-10T06:50:10;1.70;96.00
44894;DHT22;30625;52.206;21.030;2023-02-10T06:52:37;2.30;95.90
44894;DHT22;30625;52.206;21.030;2023-02-10T06:55:04;0.30;95.60
44894;DHT22;30625;52.206;21.030;2023-02-10T06:57:29;0.60;95.80
44894;DHT22;30625;52.206;21.030;2023-02-10T06:59:55;-1.90;95.10
44894;DHT22;30625;52.206;21.030;2023-02-10T07:02:21;0.50;95.70
44894;DHT22;30625;52.206;21.030;2023-02-10T07:04:47;0.50;95.70
44894;DHT22;30625;52.206;21.030;2023-02-10T07:07:13;0.80;95.60
44894;DHT22;30625;52.206;21.030;2023-02-10T07:09:38;0.50;95.80
44894;DHT22;30625;52.206;21.030;2023-02-10T07:12:04;0.50;95.70
44894;DHT22;30625;52.206;21.030;2023-02-10T07:14:29;0.50;95.90
44894;DHT22;30625;52.206;21.030;2023-02-10T07:16:55;0.40;95.90
44894;DHT22;30625;52.206;21.030;2023-02-10T07:19:20;0.40;96.00
44894;DHT22;30625;52.206;21.030;2023-02-10T07:21:46;1.90;96.50
44894;DHT22;30625;52.206;21.030;2023-02-10T07:24:12;0.40;96.10
44894;DHT22;30625;52.206;21.030;2023-02-10T07:26:40;0.50;96.40
44894;DHT22;30625;52.206;21.030;2023-02-10T07:29:06;0.60;96.30
44894;DHT22;30625;52.206;21.030;2023-02-10T07:31:32;0.50;96.30
44894;DHT22;30625;52.206;21.030;2023-02-10T07:34:01;0.60;96.30
44894;DHT22;30625;52.206;21.030;2023-02-10T07:36:26;2.20;96.70
44894;DHT22;30625;52.206;21.030;2023-02-10T07:38:52;2.00;96.70
44894;DHT22;30625;52.206;21.030;2023-02-10T07:41:17;0.70;96.50
44894;DHT22;30625;52.206;21.030;2023-02-10T07:43:43;1.30;96.50
44894;DHT22;30625;52.206;21.030;2023-02-10T07:46:08;1.20;96.90
44894;DHT22;30625;52.206;21.030;2023-02-10T07:48:34;1.30;96.90
44894;DHT22;30625;52.206;21.030;2023-02-10T07:50:59;1.30;96.70
44894;DHT22;30625;52.206;21.030;2023-02-10T07:53:25;1.40;96.90
44894;DHT22;30625;52.206;21.030;2023-02-10T07:55:50;1.60;97.00
44894;DHT22;30625;52.206;21.030;2023-02-10T07:58:16;1.30;96.60
44894;DHT22;30625;52.206;21.030;2023-02-10T08:00:41;1.30;96.70
44894;DHT22;30625;52.206;21.030;2023-02-10T08:03:09;1.40;96.50
44894;DHT22;30625;52.206;21.030;2023-02-10T08:05:36;1.40;96.70
44894;DHT22;30625;52.206;21.030;2023-02-10T08:08:02;1.40;96.70
44894;DHT22;30625;52.206;21.030;2023-02-10T08:10:27;1.40;96.70
44894;DHT22;30625;52.206;21.030;2023-02-10T08:12:53;1.40;96.90
44894;DHT22;30625;52.206;21.030;2023-02-10T08:15:18;1.70;96.90
44894;DHT22;30625;52.206;21.030;2023-02-10T08:17:46;1.60;96.90
44894;DHT22;30625;52.206;21.030;2023-02-10T08:20:11;1.60;96.80
44894;DHT22;30625;52.206;21.030;2023-02-10T08:22:37;2.50;96.90
44894;DHT22;30625;52.206;21.030;2023-02-10T08:25:02;1.70;96.80
44894;DHT22;30625;52.206;21.030;2023-02-10T08:27:28;1.80;96.60
44894;DHT22;30625;52.206;21.030;2023-02-10T08:29:57;1.80;96.60
44894;DHT22;30625;52.206;21.030;2023-02-10T08:32:22;1.70;96.80
44894;DHT22;30625;52.206;21.030;2023-02-10T08:34:48;1.80;96.90
44894;DHT22;30625;52.206;21.030;2023-02-10T08:37:14;1.80;97.00
44894;DHT22;30625;52.206;21.030;2023-02-10T08:39:40;2.40;97.60
44894;DHT22;30625;52.206;21.030;2023-02-10T08:42:06;1.90;97.60
44894;DHT22;30625;52.206;21.030;2023-02-10T08:44:31;1.90;97.50
44894;DHT22;30625;52.206;21.030;2023-02-10T08:46:57;3.70;98.00
44894;DHT22;30625;52.206;21.030;2023-02-10T08:49:23;4.40;98.30
44894;DHT22;30625;52.206;21.030;2023-02-10T08:51:53;1.80;97.60
44894;DHT22;30625;52.206;21.030;2023-02-10T08:54:18;1.70;97.90
44894;DHT22;30625;52.206;21.030;2023-02-10T08:56:44;2.20;98.10
44894;DHT22;30625;52.206;21.030;2023-02-10T08:59:10;1.70;98.20
44894;DHT22;30625;52.206;21.030;2023-02-10T09:01:35;3.10;98.60
44894;DHT22;30625;52.206;21.030;2023-02-10T09:04:01;1.60;98.30
44894;DHT22;30625;52.206;21.030;2023-02-10T09:06:31;1.60;98.30
44894;DHT22;30625;52.206;21.030;2023-02-10T09:08:58;1.60;98.80
44894;DHT22;30625;52.206;21.030;2023-02-10T09:11:27;1.60;98.70
44894;DHT22;30625;52.206;21.030;2023-02-10T09:13:53;1.60;98.60
44894;DHT22;30625;52.206;21.030;2023-02-10T09:16:19;1.60;98.70
44894;DHT22;30625;52.206;21.030;2023-02-10T09:18:45;1.90;99.10
44894;DHT22;30625;52.206;21.030;2023-02-10T09:21:10;1.60;99.60
44894;DHT22;30625;52.206;21.030;2023-02-10T09:23:36;2.30;99.10
44894;DHT22;30625;52.206;21.030;2023-02-10T09:26:02;1.50;99.20
44894;DHT22;30625;52.206;21.030;2023-02-10T09:28:27;1.50;99.20
44894;DHT22;30625;52.206;21.030;2023-02-10T09:30:53;1.60;99.00
44894;DHT22;30625;52.206;21.030;2023-02-10T09:33:19;1.60;99.50
44894;DHT22;30625;52.206;21.030;2023-02-10T09:35:44;1.60;99.10
44894;DHT22;30625;52.206;21.030;2023-02-10T09:38:10;1.90;99.40
44894;DHT22;30625;52.206;21.030;2023-02-10T09:40:46;1.00;99.10
44894;DHT22;30625;52.206;21.030;2023-02-10T09:46:15;1.80;99.30
44894;DHT22;30625;52.206;21.030;2023-02-10T09:51:24;1.90;99.10
44894;DHT22;30625;52.206;21.030;2023-02-10T09:53:55;2.00;99.10
44894;DHT22;30625;52.206;21.030;2023-02-10T09:56:20;2.10;99.00
44894;DHT22;30625;52.206;21.030;2023-02-10T09:58:48;2.10;99.20
44894;DHT22;30625;52.206;21.030;2023-02-10T10:06:21;1.90;99.00
44894;DHT22;30625;52.206;21.030;2023-02-10T10:13:47;1.70;99.50
44894;DHT22;30625;52.206;21.030;2023-02-10T10:16:18;2.10;99.90
44894;DHT22;30625;52.206;21.030;2023-02-10T10:18:57;1.80;99.70
44894;DHT22;30625;52.206;21.030;2023-02-10T10:21:28;1.90;99.80
44894;DHT22;30625;52.206;21.030;2023-02-10T10:24:13;2.00;99.70
44894;DHT22;30625;52.206;21.030;2023-02-10T10:31:37;2.40;99.90
44894;DHT22;30625;52.206;21.030;2023-02-10T10:39:00;2.10;99.90
44894;DHT22;30625;52.206;21.030;2023-02-10T10:41:28;4.00;99.90
44894;DHT22;30625;52.206;21.030;2023-02-10T10:43:56;2.10;99.90
44894;DHT22;30625;52.206;21.030;2023-02-10T10:48:48;2.10;99.90
44894;DHT22;30625;52.206;21.030;2023-02-10T10:51:13;2.90;99.90
44894;DHT22;30625;52.206;21.030;2023-02-10T10:58:44;1.90;99.90
44894;DHT22;30625;52.206;21.030;2023-02-10T11:01:10;2.00;99.90
44894;DHT22;30625;52.206;21.030;2023-02-10T11:03:36;3.70;99.90
44894;DHT22;30625;52.206;21.030;2023-02-10T11:11:08;2.00;99.90
44894;DHT22;30625;52.206;21.030;2023-02-10T11:13:36;2.00;99.90
44894;DHT22;30625;52.206;21.030;2023-02-10T11:18:28;2.00;99.90
44894;DHT22;30625;52.206;21.030;2023-02-10T11:20:55;2.10;99.90
44894;DHT22;30625;52.206;21.030;2023-02-10T11:23:20;2.20;99.90
44894;DHT22;30625;52.206;21.030;2023-02-10T11:25:47;2.20;99.90
44894;DHT22;30625;52.206;21.030;2023-02-10T11:28:20;2.30;99.90
44894;DHT22;30625;52.206;21.030;2023-02-10T11:30:47;3.50;99.90
44894;DHT22;30625;52.206;21.030;2023-02-10T11:33:20;2.30;99.90
44894;DHT22;30625;52.206;21.030;2023-02-10T11:36:03;2.30;99.90
44894;DHT22;30625;52.206;21.030;2023-02-10T11:38:29;2.40;99.90
44894;DHT22;30625;52.206;21.030;2023-02-10T11:40:57;2.40;99.90
44894;DHT22;30625;52.206;21.030;2023-02-10T11:43:37;2.60;99.90
44894;DHT22;30625;52.206;21.030;2023-02-10T11:46:05;2.50;99.90
44894;DHT22;30625;52.206;21.030;2023-02-10T11:48:31;2.50;99.90
44894;DHT22;30625;52.206;21.030;2023-02-10T11:51:12;3.70;99.90
44894;DHT22;30625;52.206;21.030;2023-02-10T11:53:38;2.60;99.90
44894;DHT22;30625;52.206;21.030;2023-02-10T12:04:24;3.00;99.90
44894;DHT22;30625;52.206;21.030;2023-02-10T12:20:26;2.80;99.90
44894;DHT22;30625;52.206;21.030;2023-02-10T12:25:46;2.70;99.90
44894;DHT22;30625;52.206;21.030;2023-02-10T12:41:06;2.90;99.90
44894;DHT22;30625;52.206;21.030;2023-02-10T12:51:57;2.90;99.90
44894;DHT22;30625;52.206;21.030;2023-02-10T12:54:26;2.90;99.90
44894;DHT22;30625;52.206;21.030;2023-02-10T12:56:57;2.90;99.90
44894;DHT22;30625;52.206;21.030;2023-02-10T12:59:33;2.80;99.90
44894;DHT22;30625;52.206;21.030;2023-02-10T13:02:03;2.80;99.90
44894;DHT22;30625;52.206;21.030;2023-02-10T13:04:32;2.80;99.90
44894;DHT22;30625;52.206;21.030;2023-02-10T13:07:02;2.80;99.90
44894;DHT22;30625;52.206;21.030;2023-02-10T13:09:37;2.70;99.90
44894;DHT22;30625;52.206;21.030;2023-02-10T13:14:30;2.70;99.90
44894;DHT22;30625;52.206;21.030;2023-02-10T13:16:57;2.70;99.90
44894;DHT22;30625;52.206;21.030;2023-02-10T13:30:00;2.50;99.90
44894;DHT22;30625;52.206;21.030;2023-02-10T13:34:56;2.60;99.90
44894;DHT22;30625;52.206;21.030;2023-02-10T13:37:36;2.60;99.90
44894;DHT22;30625;52.206;21.030;2023-02-10T13:40:21;2.50;99.90
44894;DHT22;30625;52.206;21.030;2023-02-10T13:45:14;4.20;99.90
44894;DHT22;30625;52.206;21.030;2023-02-10T13:52:48;2.50;99.90
44894;DHT22;30625;52.206;21.030;2023-02-10T13:57:50;2.60;99.90
44894;DHT22;30625;52.206;21.030;2023-02-10T14:00:24;2.30;99.90
44894;DHT22;30625;52.206;21.030;2023-02-10T14:05:27;1.70;99.90
44894;DHT22;30625;52.206;21.030;2023-02-10T14:07:53;4.80;99.90
44894;DHT22;30625;52.206;21.030;2023-02-10T14:12:57;2.30;99.90
44894;DHT22;30625;52.206;21.030;2023-02-10T14:15:28;2.40;99.90
44894;DHT22;30625;52.206;21.030;2023-02-10T14:17:55;2.40;99.90
44894;DHT22;30625;52.206;21.030;2023-02-10T14:20:24;2.60;99.90
44894;DHT22;30625;52.206;21.030;2023-02-10T14:22:50;2.40;99.90
44894;DHT22;30625;52.206;21.030;2023-02-10T14:25:20;2.40;99.90
44894;DHT22;30625;52.206;21.030;2023-02-10T14:27:48;2.40;99.90
44894;DHT22;30625;52.206;21.030;2023-02-10T14:32:58;2.30;99.90
44894;DHT22;30625;52.206;21.030;2023-02-10T14:35:24;2.30;99.90
44894;DHT22;30625;52.206;21.030;2023-02-10T14:37:54;2.20;99.90
44894;DHT22;30625;52.206;21.030;2023-02-10T14:40:20;2.30;99.90
44894;DHT22;30625;52.206;21.030;2023-02-10T14:42:46;2.30;99.90
44894;DHT22;30625;52.206;21.030;2023-02-10T14:45:20;2.30;99.90
44894;DHT22;30625;52.206;21.030;2023-02-10T14:47:46;2.30;99.90
44894;DHT22;30625;52.206;21.030;2023-02-10T14:50:55;2.20;99.90
44894;DHT22;30625;52.206;21.030;2023-02-10T14:53:15;2.20;99.90
44894;DHT22;30625;52.206;21.030;2023-02-10T14:55:41;2.60;99.90
44894;DHT22;30625;52.206;21.030;2023-02-10T15:00:34;2.20;99.90
44894;DHT22;30625;52.206;21.030;2023-02-10T15:03:00;2.20;99.90
44894;DHT22;30625;52.206;21.030;2023-02-10T15:05:28;2.20;99.90
44894;DHT22;30625;52.206;21.030;2023-02-10T15:07:55;2.40;99.90
44894;DHT22;30625;52.206;21.030;2023-02-10T15:10:38;2.10;99.90
44894;DHT22;30625;52.206;21.030;2023-02-10T15:13:06;2.10;99.90
44894;DHT22;30625;52.206;21.030;2023-02-10T15:15:34;2.10;99.90
44894;DHT22;30625;52.206;21.030;2023-02-10T15:18:00;2.70;99.90
44894;DHT22;30625;52.206;21.030;2023-02-10T15:20:28;3.50;99.90
44894;DHT22;30625;52.206;21.030;2023-02-10T15:30:47;2.10;99.90
44894;DHT22;30625;52.206;21.030;2023-02-10T15:33:21;2.10;99.90
44894;DHT22;30625;52.206;21.030;2023-02-10T15:35:51;2.10;99.90
44894;DHT22;30625;52.206;21.030;2023-02-10T15:38:16;2.80;99.90
44894;DHT22;30625;52.206;21.030;2023-02-10T15:40:42;2.40;99.90
44894;DHT22;30625;52.206;21.030;2023-02-10T15:43:28;2.10;99.90
44894;DHT22;30625;52.206;21.030;2023-02-10T15:46:12;2.00;99.90
44894;DHT22;30625;52.206;21.030;2023-02-10T15:48:39;2.10;99.90
44894;DHT22;30625;52.206;21.030;2023-02-10T15:51:04;2.00;99.90
44894;DHT22;30625;52.206;21.030;2023-02-10T15:53:30;2.00;99.90
44894;DHT22;30625;52.206;21.030;2023-02-10T15:55:57;3.40;99.90
44894;DHT22;30625;52.206;21.030;2023-02-10T15:58:23;2.00;99.90
44894;DHT22;30625;52.206;21.030;2023-02-10T16:00:48;2.00;99.90
44894;DHT22;30625;52.206;21.030;2023-02-10T16:03:15;1.90;99.90
44894;DHT22;30625;52.206;21.030;2023-02-10T16:05:41;3.00;99.90
44894;DHT22;30625;52.206;21.030;2023-02-10T16:08:15;2.00;99.90
44894;DHT22;30625;52.206;21.030;2023-02-10T16:10:43;1.90;99.90
44894;DHT22;30625;52.206;21.030;2023-02-10T16:13:09;1.90;99.90
44894;DHT22;30625;52.206;21.030;2023-02-10T16:15:36;1.90;99.90
44894;DHT22;30625;52.206;21.030;2023-02-10T16:18:02;1.90;99.90
44894;DHT22;30625;52.206;21.030;2023-02-10T16:20:29;1.90;99.90
44894;DHT22;30625;52.206;21.030;2023-02-10T16:22:55;4.50;99.90
44894;DHT22;30625;52.206;21.030;2023-02-10T16:25:22;1.90;99.90
44894;DHT22;30625;52.206;21.030;2023-02-10T16:27:48;1.80;99.90
44894;DHT22;30625;52.206;21.030;2023-02-10T16:30:15;1.80;99.90
44894;DHT22;30625;52.206;21.030;2023-02-10T16:32:41;1.90;99.90
44894;DHT22;30625;52.206;21.030;2023-02-10T16:35:07;1.90;99.90
44894;DHT22;30625;52.206;21.030;2023-02-10T16:37:38;1.90;99.90
44894;DHT22;30625;52.206;21.030;2023-02-10T16:40:04;3.90;99.90
44894;DHT22;30625;52.206;21.030;2023-02-10T16:42:30;2.00;99.90
44894;DHT22;30625;52.206;21.030;2023-02-10T16:44:55;2.00;99.90
44894;DHT22;30625;52.206;21.030;2023-02-10T16:47:21;2.00;99.90
44894;DHT22;30625;52.206;21.030;2023-02-10T16:49:47;2.20;99.90
44894;DHT22;30625;52.206;21.030;2023-02-10T16:52:13;1.90;99.90
44894;DHT22;30625;52.206;21.030;2023-02-10T16:54:39;2.40;99.90
44894;DHT22;30625;52.206;21.030;2023-02-10T16:57:05;2.70;99.90
44894;DHT22;30625;52.206;21.030;2023-02-10T16:59:31;1.90;99.90
44894;DHT22;30625;52.206;21.030;2023-02-10T17:01:57;4.10;99.90
44894;DHT22;30625;52.206;21.030;2023-02-10T17:04:23;1.80;99.90
44894;DHT22;30625;52.206;21.030;2023-02-10T17:06:50;1.80;99.90
44894;DHT22;30625;52.206;21.030;2023-02-10T17:09:21;1.80;99.90
44894;DHT22;30625;52.206;21.030;2023-02-10T17:11:47;2.00;99.90
44894;DHT22;30625;52.206;21.030;2023-02-10T17:14:13;2.30;99.90
44894;DHT22;30625;52.206;21.030;2023-02-10T17:16:40;1.90;99.90
44894;DHT22;30625;52.206;21.030;2023-02-10T17:19:07;2.20;99.90
44894;DHT22;30625;52.206;21.030;2023-02-10T17:21:33;2.00;99.90
44894;DHT22;30625;52.206;21.030;2023-02-10T17:23:59;2.20;99.90
44894;DHT22;30625;52.206;21.030;2023-02-10T17:26:24;2.30;99.90
44894;DHT22;30625;52.206;21.030;2023-02-10T17:28:50;1.20;99.90
44894;DHT22;30625;52.206;21.030;2023-02-10T17:31:17;2.50;99.90
44894;DHT22;30625;52.206;21.030;2023-02-10T17:33:43;1.90;99.90
44894;DHT22;30625;52.206;21.030;2023-02-10T17:36:24;2.00;99.90
44894;DHT22;30625;52.206;21.030;2023-02-10T17:38:50;2.00;99.90
44894;DHT22;30625;52.206;21.030;2023-02-10T17:41:16;2.00;99.90
44894;DHT22;30625;52.206;21.030;2023-02-10T17:43:42;2.10;99.90
44894;DHT22;30625;52.206;21.030;2023-02-10T17:46:09;2.00;99.90
44894;DHT22;30625;52.206;21.030;2023-02-10T17:48:35;2.10;99.90
44894;DHT22;30625;52.206;21.030;2023-02-10T17:51:09;0.10;99.90
44894;DHT22;30625;52.206;21.030;2023-02-10T17:53:35;2.00;99.90
44894;DHT22;30625;52.206;21.030;2023-02-10T17:56:01;0.90;99.90
44894;DHT22;30625;52.206;21.030;2023-02-10T17:58:27;2.50;99.90
44894;DHT22;30625;52.206;21.030;2023-02-10T18:00:52;2.10;99.90
44894;DHT22;30625;52.206;21.030;2023-02-10T18:03:18;2.10;99.90
44894;DHT22;30625;52.206;21.030;2023-02-10T18:05:44;3.90;99.90
44894;DHT22;30625;52.206;21.030;2023-02-10T18:08:10;2.20;99.90
44894;DHT22;30625;52.206;21.030;2023-02-10T18:10:36;2.20;99.90
44894;DHT22;30625;52.206;21.030;2023-02-10T18:13:02;2.70;99.90
44894;DHT22;30625;52.206;21.030;2023-02-10T18:15:28;2.20;99.90
44894;DHT22;30625;52.206;21.030;2023-02-10T18:17:53;2.20;99.90
44894;DHT22;30625;52.206;21.030;2023-02-10T18:20:19;2.20;99.90
44894;DHT22;30625;52.206;21.030;2023-02-10T18:22:44;2.30;99.90
44894;DHT22;30625;52.206;21.030;2023-02-10T18:25:12;2.30;99.90
44894;DHT22;30625;52.206;21.030;2023-02-10T18:27:37;2.30;99.90
44894;DHT22;30625;52.206;21.030;2023-02-10T18:30:03;4.40;99.90
44894;DHT22;30625;52.206;21.030;2023-02-10T18:32:30;2.20;99.90
44894;DHT22;30625;52.206;21.030;2023-02-10T18:34:56;2.30;99.90
44894;DHT22;30625;52.206;21.030;2023-02-10T18:37:21;2.30;99.90
44894;DHT22;30625;52.206;21.030;2023-02-10T18:39:47;2.30;99.90
44894;DHT22;30625;52.206;21.030;2023-02-10T18:42:12;2.20;99.90
44894;DHT22;30625;52.206;21.030;2023-02-10T18:44:38;2.60;99.90
44894;DHT22;30625;52.206;21.030;2023-02-10T18:47:03;2.30;99.90
44894;DHT22;30625;52.206;21.030;2023-02-10T18:49:29;3.60;99.90
44894;DHT22;30625;52.206;21.030;2023-02-10T18:51:55;2.30;99.90
44894;DHT22;30625;52.206;21.030;2023-02-10T18:54:21;2.20;99.90
44894;DHT22;30625;52.206;21.030;2023-02-10T18:56:47;2.10;99.90
44894;DHT22;30625;52.206;21.030;2023-02-10T18:59:12;2.20;99.90
44894;DHT22;30625;52.206;21.030;2023-02-10T19:01:38;2.20;99.90
44894;DHT22;30625;52.206;21.030;2023-02-10T19:04:04;2.30;99.90
44894;DHT22;30625;52.206;21.030;2023-02-10T19:06:30;2.30;99.90
44894;DHT22;30625;52.206;21.030;2023-02-10T19:08:56;2.90;99.90
44894;DHT22;30625;52.206;21.030;2023-02-10T19:11:23;2.30;99.90
44894;DHT22;30625;52.206;21.030;2023-02-10T19:13:48;2.10;99.90
44894;DHT22;30625;52.206;21.030;2023-02-10T19:16:14;2.30;99.90
44894;DHT22;30625;52.206;21.030;2023-02-10T19:18:41;2.30;99.90
44894;DHT22;30625;52.206;21.030;2023-02-10T19:21:07;2.30;99.90
44894;DHT22;30625;52.206;21.030;2023-02-10T19:23:36;2.30;99.90
44894;DHT22;30625;52.206;21.030;2023-02-10T19:26:10;-0.20;99.90
44894;DHT22;30625;52.206;21.030;2023-02-10T19:28:36;5.10;99.90
44894;DHT22;30625;52.206;21.030;2023-02-10T19:31:03;4.30;99.90
44894;DHT22;30625;52.206;21.030;2023-02-10T19:33:29;2.20;99.90
44894;DHT22;30625;52.206;21.030;2023-02-10T19:35:54;2.20;99.90
44894;DHT22;30625;52.206;21.030;2023-02-10T19:38:20;4.80;99.90
44894;DHT22;30625;52.206;21.030;2023-02-10T19:40:46;4.90;99.90
44894;DHT22;30625;52.206;21.030;2023-02-10T19:43:11;2.40;99.90
44894;DHT22;30625;52.206;21.030;2023-02-10T19:45:38;2.80;99.90
44894;DHT22;30625;52.206;21.030;2023-02-10T19:48:04;2.40;99.90
44894;DHT22;30625;52.206;21.030;2023-02-10T19:50:29;2.30;99.90
44894;DHT22;30625;52.206;21.030;2023-02-10T19:52:55;2.40;99.90
44894;DHT22;30625;52.206;21.030;2023-02-10T19:55:20;2.40;99.90
44894;DHT22;30625;52.206;21.030;2023-02-10T19:57:46;2.30;99.90
44894;DHT22;30625;52.206;21.030;2023-02-10T20:00:11;2.30;99.90
44894;DHT22;30625;52.206;21.030;2023-02-10T20:02:37;2.20;99.90
44894;DHT22;30625;52.206;21.030;2023-02-10T20:05:03;2.20;99.90
44894;DHT22;30625;52.206;21.030;2023-02-10T20:07:28;2.20;99.90
44894;DHT22;30625;52.206;21.030;2023-02-10T20:09:54;3.20;99.90
44894;DHT22;30625;52.206;21.030;2023-02-10T20:12:21;2.20;99.90
44894;DHT22;30625;52.206;21.030;2023-02-10T20:14:46;4.70;99.90
44894;DHT22;30625;52.206;21.030;2023-02-10T20:17:12;2.20;99.90
44894;DHT22;30625;52.206;21.030;2023-02-10T20:19:38;3.10;99.90
44894;DHT22;30625;52.206;21.030;2023-02-10T20:22:09;2.10;99.90
44894;DHT22;30625;52.206;21.030;2023-02-10T20:24:37;2.20;99.90
44894;DHT22;30625;52.206;21.030;2023-02-10T20:27:03;3.10;99.90
44894;DHT22;30625;52.206;21.030;2023-02-10T20:29:28;2.20;99.90
44894;DHT22;30625;52.206;21.030;2023-02-10T20:31:54;2.50;99.90
44894;DHT22;30625;52.206;21.030;2023-02-10T20:34:19;2.20;99.90
44894;DHT22;30625;52.206;21.030;2023-02-10T20:36:45;2.20;99.90
44894;DHT22;30625;52.206;21.030;2023-02-10T20:39:11;2.20;99.90
44894;DHT22;30625;52.206;21.030;2023-02-10T20:41:37;0.00;99.90
44894;DHT22;30625;52.206;21.030;2023-02-10T20:44:02;0.80;99.90
44894;DHT22;30625;52.206;21.030;2023-02-10T20:46:28;2.10;99.90
44894;DHT22;30625;52.206;21.030;2023-02-10T20:48:54;2.00;99.90
44894;DHT22;30625;52.206;21.030;2023-02-10T20:51:20;2.00;99.90
44894;DHT22;30625;52.206;21.030;2023-02-10T20:53:46;2.10;99.90
44894;DHT22;30625;52.206;21.030;2023-02-10T20:56:12;2.10;99.90
44894;DHT22;30625;52.206;21.030;2023-02-10T20:58:38;2.10;99.90
44894;DHT22;30625;52.206;21.030;2023-02-10T21:01:05;2.10;99.90
44894;DHT22;30625;52.206;21.030;2023-02-10T21:03:30;2.10;99.90
44894;DHT22;30625;52.206;21.030;2023-02-10T21:06:10;2.20;99.90
44894;DHT22;30625;52.206;21.030;2023-02-10T21:08:36;2.10;99.90
44894;DHT22;30625;52.206;21.030;2023-02-10T21:11:03;2.10;99.90
44894;DHT22;30625;52.206;21.030;2023-02-10T21:13:28;2.00;99.90
44894;DHT22;30625;52.206;21.030;2023-02-10T21:15:55;2.00;99.90
44894;DHT22;30625;52.206;21.030;2023-02-10T21:18:21;2.10;99.90
44894;DHT22;30625;52.206;21.030;2023-02-10T21:20:46;3.70;99.90
44894;DHT22;30625;52.206;21.030;2023-02-10T21:23:12;2.20;99.90
44894;DHT22;30625;52.206;21.030;2023-02-10T21:25:37;4.00;99.90
44894;DHT22;30625;52.206;21.030;2023-02-10T21:28:03;2.60;99.90
44894;DHT22;30625;52.206;21.030;2023-02-10T21:30:29;2.20;99.90
44894;DHT22;30625;52.206;21.030;2023-02-10T21:32:55;2.20;99.90
44894;DHT22;30625;52.206;21.030;2023-02-10T21:35:21;2.90;99.90
44894;DHT22;30625;52.206;21.030;2023-02-10T21:37:47;1.30;99.90
44894;DHT22;30625;52.206;21.030;2023-02-10T21:40:13;3.20;99.90
44894;DHT22;30625;52.206;21.030;2023-02-10T21:42:39;2.40;99.90
44894;DHT22;30625;52.206;21.030;2023-02-10T21:45:04;2.60;99.90
44894;DHT22;30625;52.206;21.030;2023-02-10T21:47:30;2.40;99.90
44894;DHT22;30625;52.206;21.030;2023-02-10T21:49:55;2.40;99.90
44894;DHT22;30625;52.206;21.030;2023-02-10T21:52:21;4.50;99.90
44894;DHT22;30625;52.206;21.030;2023-02-10T21:54:46;2.40;99.90
44894;DHT22;30625;52.206;21.030;2023-02-10T21:57:12;2.50;99.90
44894;DHT22;30625;52.206;21.030;2023-02-10T21:59:38;2.50;99.90
44894;DHT22;30625;52.206;21.030;2023-02-10T22:02:04;2.50;99.90
44894;DHT22;30625;52.206;21.030;2023-02-10T22:04:30;2.50;99.90
44894;DHT22;30625;52.206;21.030;2023-02-10T22:06:56;2.50;99.90
44894;DHT22;30625;52.206;21.030;2023-02-10T22:09:21;3.90;99.90
44894;DHT22;30625;52.206;21.030;2023-02-10T22:11:47;2.50;99.90
44894;DHT22;30625;52.206;21.030;2023-02-10T22:14:13;2.50;99.90
44894;DHT22;30625;52.206;21.030;2023-02-10T22:16:39;2.60;99.90
44894;DHT22;30625;52.206;21.030;2023-02-10T22:19:05;2.60;99.90
44894;DHT22;30625;52.206;21.030;2023-02-10T22:21:31;2.60;99.90
44894;DHT22;30625;52.206;21.030;2023-02-10T22:23:59;2.60;99.90
44894;DHT22;30625;52.206;21.030;2023-02-10T22:26:26;2.70;99.90
44894;DHT22;30625;52.206;21.030;2023-02-10T22:28:52;2.60;99.90
44894;DHT22;30625;52.206;21.030;2023-02-10T22:31:18;3.30;99.90
44894;DHT22;30625;52.206;21.030;2023-02-10T22:33:52;5.00;99.90
44894;DHT22;30625;52.206;21.030;2023-02-10T22:36:18;2.60;99.90
44894;DHT22;30625;52.206;21.030;2023-02-10T22:38:44;2.70;99.90
44894;DHT22;30625;52.206;21.030;2023-02-10T22:41:11;2.90;99.90
44894;DHT22;30625;52.206;21.030;2023-02-10T22:43:37;2.60;99.90
44894;DHT22;30625;52.206;21.030;2023-02-10T22:46:03;2.90;99.90
44894;DHT22;30625;52.206;21.030;2023-02-10T22:48:29;2.60;99.90
44894;DHT22;30625;52.206;21.030;2023-02-10T22:50:54;2.60;99.90
44894;DHT22;30625;52.206;21.030;2023-02-10T22:53:20;2.60;99.90
44894;DHT22;30625;52.206;21.030;2023-02-10T22:55:45;3.00;99.90
44894;DHT22;30625;52.206;21.030;2023-02-10T22:58:11;4.00;99.90
44894;DHT22;30625;52.206;21.030;2023-02-10T23:00:36;2.60;99.90
44894;DHT22;30625;52.206;21.030;2023-02-10T23:03:04;3.20;99.90
44894;DHT22;30625;52.206;21.030;2023-02-10T23:05:30;4.10;99.90
44894;DHT22;30625;52.206;21.030;2023-02-10T23:07:55;2.60;99.90
44894;DHT22;30625;52.206;21.030;2023-02-10T23:10:21;4.30;99.90
44894;DHT22;30625;52.206;21.030;2023-02-10T23:12:46;2.60;99.90
44894;DHT22;30625;52.206;21.030;2023-02-10T23:15:12;3.30;99.90
44894;DHT22;30625;52.206;21.030;2023-02-10T23:17:37;3.00;99.90
44894;DHT22;30625;52.206;21.030;2023-02-10T23:20:04;2.60;99.90
44894;DHT22;30625;52.206;21.030;2023-02-10T23:22:29;2.60;99.90
44894;DHT22;30625;52.206;21.030;2023-02-10T23:24:55;3.70;99.90
44894;DHT22;30625;52.206;21.030;2023-02-10T23:27:21;2.60;99.90
44894;DHT22;30625;52.206;21.030;2023-02-10T23:29:54;2.60;99.90
44894;DHT22;30625;52.206;21.030;2023-02-10T23:32:19;3.90;99.90
44894;DHT22;30625;52.206;21.030;2023-02-10T23:34:45;3.60;99.90
44894;DHT22;30625;52.206;21.030;2023-02-10T23:37:10;2.80;99.90
44894;DHT22;30625;52.206;21.030;2023-02-10T23:39:36;2.60;99.90
44894;DHT22;30625;52.206;21.030;2023-02-10T23:42:02;2.80;99.90
44894;DHT22;30625;52.206;21.030;2023-02-10T23:44:28;2.60;99.90
44894;DHT22;30625;52.206;21.030;2023-02-10T23:46:53;2.60;99.90
44894;DHT22;30625;52.206;21.030;2023-02-10T23:49:19;2.60;99.90
44894;DHT22;30625;52.206;21.030;2023-02-10T23:51:44;2.70;99.90
44894;DHT22;30625;52.206;21.030;2023-02-10T23:54:10;4.30;99.90